Hauptseite
METAR-TAF:

METAR-TAF

Flughäfen :

Polokwane International Airport

Polokwane, Südafrika

Breite: 23-50-43S, Länge: 29-27-31E, Höhe: 1242 m

Beobachtung

Neuester Wetterbericht von vor 4 Stunden und 55 Minuten, um 18:00 UTC
Wind 4 kt aus Süd
Temperatur 29°C
Luftfeuchtigkeit 37%
Luftdruck 1018 hPa
Sichtweite 10 km oder mehr
keine Wolken unter 1500 m und keine Kumulonimbus oder Gewitterwolken

METAR: FAPP 251800Z 17004KT CAVOK 29/13 Q1018 NOSIG

Zeit: 00:55 (22:55 UTC)

Prognose

Neuester Wetterbericht von vor 13 Stunden und 55 Minuten, um 09:00 UTC
Gültige Prognose vom 25 um 10 UTC bis 25 um 18 UTC
Wind 10 kt aus Süd
Sichtweite 10 km oder mehr
Aufgelockert bewölkt in der Höhe von 3500 ft
Wahrscheinlichkeit 30% :
Zeitweise
vom 25 um 13 UTC bis 25 um 15 UTC
Leicht bewölkt in der Höhe von 3500 ft, Towering cumulus.

TAF: FAPP 250900Z 2510/2518 18010KT 9999 SCT035 TX35/2513Z TN26/2518Z PROB30 TEMPO 2513/2515 FEW035TCU

Wetterbeobachtungen und Prognosen von mehr als 4000 Flughäfen (METAR und TAF Bericht).

Die verfügbaren Stationen werden durch gelbe und rote Markierungen auf der Karte dargestellt.

Führen Sie die Maus auf sie, um den Namen der Station zu sehen.

Darauf klicken, um die Beobachtung von Wetterbeobachtungen und Prognosen zu sehen.

Um die Karte zu ändern : klicken Sie auf den grünen Tasten mit einem schwarzen Kreuz Zum Vergrößern, auf den grünen Button mit einem Gedankenstrich zu verkleinern, oder auf die grünen Pfeile für benachbarte Karten.


METAR-TAF: